Richfield, Illinois
Current Conditions -  °F | °C
As of 9:54 PM on Tuesday 27 Jan 2015 (Local Time) from KUIN Reporting Station
Haze Haze  
Wind Chill: 20°   Ceiling: Unl
Heat Index: 28°   Visibility: 5mi
Dew Point: 25°   Wind: 8mph
Humidity: 88%   Direction: 110°ESE
Pressure: 30.21"   Gusts: NA
Location:  39.8007°N, 91.1205°W
Report Text: KUIN 280354Z AUTO 11007KT 5SM BR CLR M02/M04 A3021 RMK AO2 SLP236 T10221039
Loading
Personal Weather Stations






























Interactive Weather Map New forecast layout! Learn more

10-Day Weather Forecast

Advertisements
Track Severe Weather on mobile